Time;durP1;ratioP1;P1;durP2;ratioP2;P2;SDS_P1;SDS_P2;PMS_P1;PMS_P2;Temp;Humidity;BMP_temperature;BMP_pressure;BME280_temperature;BME280_humidity;BME280_pressure;Samples;Min_cycle;Max_cycle;Signal;HPM_P1;HPM_P2
2023/01/07 00:01:38;;;;;;;8.27;4.53;;;9.00;99.90;;;;;;5020927;28;20060;-72
2023/01/07 00:04:09;;;;;;;8.50;3.70;;;9.00;99.90;;;;;;5028373;28;20065;-74
2023/01/07 00:06:38;;;;;;;7.70;4.60;;;9.00;99.90;;;;;;5027181;28;20060;-73
2023/01/07 00:09:10;;;;;;;6.90;3.67;;;9.00;99.90;;;;;;5018150;28;20049;-73
2023/01/07 00:11:39;;;;;;;5.57;3.30;;;9.10;99.90;;;;;;5012969;28;20046;-72
2023/01/07 00:14:09;;;;;;;6.78;3.75;;;9.00;99.90;;;;;;5026527;28;20041;-74
2023/01/07 00:16:37;;;;;;;5.43;3.45;;;9.00;99.90;;;;;;5015942;28;20041;-74
2023/01/07 00:19:06;;;;;;;6.35;3.80;;;9.00;99.90;;;;;;5023543;28;20038;-74
2023/01/07 00:21:34;;;;;;;5.78;3.63;;;8.90;99.90;;;;;;5028451;28;20044;-73
2023/01/07 00:24:04;;;;;;;9.50;4.13;;;8.90;99.90;;;;;;5030436;28;20496;-73
2023/01/07 00:26:35;;;;;;;6.75;3.70;;;8.90;99.90;;;;;;5007174;28;20045;-72
2023/01/07 00:29:05;;;;;;;8.80;4.07;;;8.90;99.90;;;;;;5025811;28;20140;-72
2023/01/07 00:31:37;;;;;;;7.18;4.05;;;8.90;99.90;;;;;;5028970;28;20117;-72
2023/01/07 00:34:09;;;;;;;10.63;4.45;;;8.90;99.90;;;;;;5013264;28;20050;-74
2023/01/07 00:36:44;;;;;;;6.82;3.90;;;9.00;99.90;;;;;;5012675;28;20128;-72
2023/01/07 00:39:15;;;;;;;6.18;3.65;;;8.90;99.90;;;;;;5021372;28;20046;-72
2023/01/07 00:42:52;;;;;;;6.40;3.78;;;8.90;99.90;;;;;;5005505;28;20089;-70
2023/01/07 00:44:35;;;;;;;6.85;3.88;;;8.90;99.90;;;;;;5025202;28;20054;-71
2023/01/07 00:47:06;;;;;;;7.05;3.63;;;8.90;99.90;;;;;;5025828;28;20388;-71
2023/01/07 00:49:40;;;;;;;5.82;3.53;;;8.90;99.90;;;;;;5021336;28;20455;-72
2023/01/07 00:52:11;;;;;;;5.97;3.30;;;8.90;99.90;;;;;;5025715;28;20515;-73
2023/01/07 00:54:42;;;;;;;8.18;3.38;;;8.90;99.90;;;;;;5016974;28;20059;-72
2023/01/07 00:57:14;;;;;;;4.78;3.25;;;9.00;99.90;;;;;;5025688;28;20438;-73
2023/01/07 00:59:44;;;;;;;5.68;3.40;;;8.90;99.90;;;;;;5012589;28;20049;-72
2023/01/07 01:02:13;;;;;;;5.40;3.30;;;8.90;99.90;;;;;;5028767;28;20049;-72
2023/01/07 01:04:41;;;;;;;6.80;3.40;;;8.90;99.90;;;;;;5023583;28;20754;-72
2023/01/07 01:07:19;;;;;;;5.63;3.50;;;8.90;99.90;;;;;;5012488;28;20073;-72
2023/01/07 01:09:49;;;;;;;5.05;3.00;;;9.00;99.90;;;;;;5029296;28;20068;-72
2023/01/07 01:12:29;;;;;;;5.25;3.42;;;9.00;99.90;;;;;;5020606;28;20475;-72
2023/01/07 01:14:57;;;;;;;5.57;3.25;;;9.00;99.90;;;;;;4994822;28;20137;-73
2023/01/07 01:17:31;;;;;;;6.90;3.28;;;9.00;99.90;;;;;;4986932;28;20488;-72
2023/01/07 01:20:00;;;;;;;6.95;3.53;;;9.00;99.90;;;;;;5007526;28;20052;-70
2023/01/07 01:22:30;;;;;;;5.28;3.28;;;9.00;99.90;;;;;;5021905;28;20045;-71
2023/01/07 01:25:02;;;;;;;5.40;3.60;;;9.00;99.90;;;;;;5003348;28;20056;-71
2023/01/07 01:27:31;;;;;;;6.15;3.42;;;9.00;99.90;;;;;;5016857;28;20050;-71
2023/01/07 01:30:12;;;;;;;6.93;3.47;;;9.00;99.90;;;;;;5010567;28;20042;-71
2023/01/07 01:32:48;;;;;;;6.05;3.75;;;9.00;99.90;;;;;;4992707;28;20076;-71
2023/01/07 01:35:22;;;;;;;6.38;3.30;;;9.00;99.90;;;;;;5012959;28;20057;-71
2023/01/07 01:37:54;;;;;;;5.55;3.50;;;9.00;99.90;;;;;;5023049;28;20045;-72
2023/01/07 01:40:47;;;;;;;5.78;3.30;;;9.00;99.90;;;;;;5032555;28;20116;-72
2023/01/07 01:43:30;;;;;;;5.78;3.25;;;9.00;99.90;;;;;;5027512;28;20045;-72
2023/01/07 01:46:16;;;;;;;5.85;3.25;;;9.00;99.90;;;;;;5018272;28;20064;-72
2023/01/07 01:48:57;;;;;;;6.07;3.33;;;9.00;99.90;;;;;;5027545;28;20119;-70
2023/01/07 01:51:33;;;;;;;6.35;3.20;;;9.00;99.90;;;;;;5020504;28;20045;-70
2023/01/07 01:54:06;;;;;;;6.43;3.40;;;9.00;99.90;;;;;;5027889;28;20049;-71
2023/01/07 01:56:42;;;;;;;5.50;3.25;;;9.00;99.90;;;;;;5011826;28;20029;-70
2023/01/07 01:59:17;;;;;;;5.25;3.10;;;9.10;99.90;;;;;;4996652;28;20045;-71
2023/01/07 02:01:47;;;;;;;5.72;3.17;;;9.00;99.90;;;;;;5006563;28;20509;-70
2023/01/07 02:04:22;;;;;;;5.25;3.42;;;9.00;99.90;;;;;;5014621;28;20033;-71
2023/01/07 02:06:58;;;;;;;;;;;9.00;99.90;;;;;;4996049;28;20073;-72
2023/01/07 02:09:29;;;;;;;5.80;3.33;;;9.00;99.90;;;;;;5012227;28;20303;-72
2023/01/07 02:12:18;;;;;;;5.05;2.95;;;9.00;99.90;;;;;;5043240;28;20060;-71
2023/01/07 02:15:13;;;;;;;4.13;2.78;;;9.00;99.90;;;;;;4991365;28;20048;-71
2023/01/07 02:18:06;;;;;;;5.28;3.30;;;9.00;99.90;;;;;;5021788;28;20044;-71
2023/01/07 02:21:08;;;;;;;6.80;3.40;;;9.00;99.90;;;;;;5020800;28;20041;-71
2023/01/07 02:23:47;;;;;;;6.45;3.80;;;9.00;99.90;;;;;;5018621;28;20053;-72
2023/01/07 02:26:36;;;;;;;7.20;3.42;;;9.00;99.90;;;;;;5018282;28;20083;-71
2023/01/07 02:29:38;;;;;;;6.22;3.10;;;9.00;99.90;;;;;;5004545;28;20742;-71
2023/01/07 02:32:12;;;;;;;5.25;3.13;;;9.10;99.90;;;;;;5022743;28;20053;-71
2023/01/07 02:35:11;;;;;;;6.07;3.42;;;9.10;99.90;;;;;;5011354;28;20455;-71
2023/01/07 02:37:55;;;;;;;5.30;3.10;;;9.10;99.90;;;;;;5022033;28;20077;-71
2023/01/07 02:40:37;;;;;;;5.15;2.85;;;9.10;99.90;;;;;;5020326;28;20109;-71
2023/01/07 02:43:20;;;;;;;5.20;3.33;;;9.10;99.90;;;;;;4992889;28;20514;-71
2023/01/07 02:45:59;;;;;;;5.47;3.33;;;9.20;99.90;;;;;;4999816;28;20092;-71
2023/01/07 02:48:27;;;;;;;7.38;3.72;;;9.20;99.90;;;;;;5020332;28;20037;-70
2023/01/07 02:50:54;;;;;;;5.75;3.45;;;9.20;99.90;;;;;;5022242;28;20434;-71
2023/01/07 02:53:22;;;;;;;8.85;3.88;;;9.10;99.90;;;;;;5019325;28;20042;-70
2023/01/07 02:56:16;;;;;;;5.85;3.55;;;9.10;99.90;;;;;;5027579;28;20042;-71
2023/01/07 02:59:07;;;;;;;5.13;3.40;;;9.10;99.90;;;;;;4998511;28;20046;-71
2023/01/07 03:02:00;;;;;;;5.57;3.53;;;9.10;99.90;;;;;;5027682;28;20103;-70
2023/01/07 03:04:27;;;;;;;6.30;3.40;;;9.10;99.90;;;;;;5018699;28;20111;-72
2023/01/07 03:07:32;;;;;;;5.32;3.22;;;9.10;99.90;;;;;;5021200;28;20095;-70
2023/01/07 03:10:13;;;;;;;5.50;3.40;;;9.10;99.90;;;;;;5022426;28;20627;-71
2023/01/07 03:13:05;;;;;;;8.07;3.88;;;9.00;99.90;;;;;;5012151;28;20115;-70
2023/01/07 03:15:45;;;;;;;5.65;3.22;;;9.00;99.90;;;;;;5015858;28;20088;-69
2023/01/07 03:18:23;;;;;;;5.47;3.60;;;9.00;99.90;;;;;;4993099;28;20048;-69
2023/01/07 03:20:55;;;;;;;6.05;3.67;;;9.00;99.90;;;;;;5012068;28;20063;-70
2023/01/07 03:23:26;;;;;;;5.78;3.63;;;9.00;99.90;;;;;;5014304;28;20120;-69
2023/01/07 03:25:56;;;;;;;6.63;3.95;;;9.00;99.90;;;;;;5024604;28;20052;-70
2023/01/07 03:28:28;;;;;;;6.40;3.47;;;8.90;99.90;;;;;;5019959;28;20041;-70
2023/01/07 03:30:58;;;;;;;7.43;4.07;;;8.90;99.90;;;;;;5027368;28;20093;-69
2023/01/07 03:33:41;;;;;;;6.97;3.97;;;8.90;99.90;;;;;;5030443;28;20419;-69
2023/01/07 03:36:11;;;;;;;7.55;4.32;;;8.90;99.90;;;;;;5030065;28;20120;-70
2023/01/07 03:38:41;;;;;;;7.45;4.07;;;8.90;99.90;;;;;;5027520;28;20365;-69
2023/01/07 03:42:38;;;;;;;;;;;8.90;99.90;;;;;;5014118;28;20087;-69
2023/01/07 03:43:58;;;;;;;6.05;4.03;;;8.90;99.90;;;;;;5025286;28;19929;-70
2023/01/07 03:46:26;;;;;;;8.23;4.13;;;8.90;99.90;;;;;;5019430;28;20503;-68
2023/01/07 03:48:54;;;;;;;6.63;4.07;;;8.90;99.90;;;;;;5024199;28;20041;-68
2023/01/07 03:51:22;;;;;;;7.43;3.67;;;8.90;99.90;;;;;;5029063;28;20126;-68
2023/01/07 03:53:49;;;;;;;5.15;3.45;;;8.90;99.90;;;;;;5027507;28;20107;-69
2023/01/07 03:56:17;;;;;;;5.63;3.53;;;8.90;99.90;;;;;;5005243;28;20046;-68
2023/01/07 03:58:44;;;;;;;4.97;3.20;;;8.90;99.90;;;;;;5024198;28;20530;-68
2023/01/07 04:01:11;;;;;;;5.07;3.30;;;8.80;99.90;;;;;;5030558;28;20504;-69
2023/01/07 04:03:39;;;;;;;5.82;3.60;;;8.80;99.90;;;;;;5020536;28;20065;-68
2023/01/07 04:06:06;;;;;;;7.20;3.83;;;8.90;99.90;;;;;;5014067;28;20068;-68
2023/01/07 04:08:36;;;;;;;6.18;3.80;;;8.80;99.90;;;;;;5029239;28;20048;-68
2023/01/07 04:11:03;;;;;;;4.75;3.00;;;8.80;99.90;;;;;;5030293;28;20548;-69
2023/01/07 04:13:30;;;;;;;4.32;2.97;;;8.80;99.90;;;;;;5020393;28;20046;-68
2023/01/07 04:15:58;;;;;;;4.90;3.33;;;8.80;99.90;;;;;;5029272;28;20033;-69
2023/01/07 04:18:25;;;;;;;6.88;3.55;;;8.80;99.90;;;;;;5011281;28;20056;-68
2023/01/07 04:20:54;;;;;;;5.93;3.33;;;8.80;99.90;;;;;;5029633;28;20076;-69
2023/01/07 04:23:21;;;;;;;5.57;3.60;;;8.80;99.90;;;;;;5031137;28;20489;-68
2023/01/07 04:25:49;;;;;;;5.68;3.63;;;8.80;99.90;;;;;;5026743;28;20052;-68
2023/01/07 04:28:21;;;;;;;5.07;3.10;;;8.80;99.90;;;;;;5025849;28;20147;-69
2023/01/07 04:30:49;;;;;;;6.45;3.50;;;8.80;99.90;;;;;;5028082;28;20122;-67
2023/01/07 04:33:17;;;;;;;6.93;3.53;;;8.80;99.90;;;;;;5013862;28;20045;-67
2023/01/07 04:35:45;;;;;;;5.35;3.40;;;8.90;99.90;;;;;;5028442;28;20566;-70
2023/01/07 04:38:13;;;;;;;5.82;3.80;;;8.90;99.90;;;;;;5015197;28;20048;-70
2023/01/07 04:40:40;;;;;;;5.15;3.28;;;8.90;99.90;;;;;;5029883;28;20053;-68
2023/01/07 04:43:08;;;;;;;5.38;3.30;;;8.90;99.90;;;;;;5012381;28;20165;-68
2023/01/07 04:45:36;;;;;;;5.47;3.80;;;8.90;99.90;;;;;;5009435;28;20052;-68
2023/01/07 04:48:03;;;;;;;6.78;4.38;;;8.90;99.90;;;;;;5009976;28;20072;-68
2023/01/07 04:50:31;;;;;;;4.82;3.10;;;8.90;99.90;;;;;;5028281;28;20547;-69
2023/01/07 04:52:59;;;;;;;6.20;3.80;;;8.90;99.90;;;;;;5026886;28;20046;-68
2023/01/07 04:55:27;;;;;;;7.30;4.50;;;8.90;99.90;;;;;;5007076;28;20038;-67
2023/01/07 04:57:55;;;;;;;6.20;4.20;;;8.90;99.90;;;;;;5013648;28;20500;-69
2023/01/07 05:00:22;;;;;;;7.72;4.28;;;9.00;99.90;;;;;;5021114;28;20061;-68
2023/01/07 05:02:52;;;;;;;7.53;5.05;;;8.90;99.90;;;;;;5013065;28;20504;-68
2023/01/07 05:05:20;;;;;;;8.07;4.80;;;8.90;99.90;;;;;;5028687;28;20092;-69
2023/01/07 05:07:48;;;;;;;7.20;5.00;;;8.90;99.90;;;;;;5004117;28;20526;-69
2023/01/07 05:10:17;;;;;;;7.85;4.90;;;8.90;99.90;;;;;;4989171;28;20073;-68
2023/01/07 05:12:44;;;;;;;6.75;4.70;;;9.00;99.90;;;;;;5009758;28;20053;-69
2023/01/07 05:15:14;;;;;;;7.97;5.20;;;8.90;99.90;;;;;;5027734;28;20036;-68
2023/01/07 05:17:41;;;;;;;6.93;4.57;;;8.90;99.90;;;;;;5025947;28;20044;-68
2023/01/07 05:20:09;;;;;;;9.15;5.38;;;8.90;99.90;;;;;;5009278;28;20475;-68
2023/01/07 05:22:38;;;;;;;8.93;4.60;;;8.90;99.90;;;;;;5021541;28;20041;-69
2023/01/07 05:25:06;;;;;;;8.50;5.75;;;8.80;99.90;;;;;;5028124;28;20045;-67
2023/01/07 05:27:33;;;;;;;6.95;5.00;;;8.90;99.90;;;;;;5015214;28;20052;-68
2023/01/07 05:30:02;;;;;;;8.73;5.68;;;8.90;99.90;;;;;;5027457;28;20121;-68
2023/01/07 05:32:30;;;;;;;11.65;6.72;;;8.90;99.90;;;;;;5026178;28;20069;-68
2023/01/07 05:34:57;;;;;;;9.52;6.18;;;8.90;99.90;;;;;;5022816;28;20530;-68
2023/01/07 05:37:25;;;;;;;7.88;5.63;;;8.90;99.90;;;;;;5011288;28;20473;-68
2023/01/07 05:39:52;;;;;;;9.40;5.32;;;8.90;99.90;;;;;;5025282;28;20375;-68
2023/01/07 05:42:20;;;;;;;7.72;4.82;;;8.90;99.90;;;;;;5025023;28;20034;-68
2023/01/07 05:44:48;;;;;;;8.75;5.13;;;9.00;99.90;;;;;;5010416;28;20045;-68
2023/01/07 05:47:16;;;;;;;8.45;5.28;;;8.90;99.90;;;;;;5024418;28;20550;-69
2023/01/07 05:49:43;;;;;;;7.57;4.95;;;8.90;99.90;;;;;;5027206;28;20480;-67
2023/01/07 05:52:10;;;;;;;8.45;5.20;;;8.90;99.90;;;;;;5026999;28;20065;-68
2023/01/07 05:54:37;;;;;;;6.43;4.60;;;9.00;99.90;;;;;;5019428;28;20049;-68
2023/01/07 05:57:05;;;;;;;8.73;5.30;;;8.90;99.90;;;;;;5024786;28;20468;-68
2023/01/07 05:59:33;;;;;;;8.43;4.88;;;8.90;99.90;;;;;;5016005;28;20041;-68
2023/01/07 06:02:01;;;;;;;7.95;5.18;;;8.90;99.90;;;;;;5024981;28;20045;-68
2023/01/07 06:04:29;;;;;;;8.38;4.88;;;8.90;99.90;;;;;;5014143;28;20038;-69
2023/01/07 06:06:56;;;;;;;6.97;4.68;;;8.90;99.90;;;;;;5027819;28;20052;-68
2023/01/07 06:09:23;;;;;;;7.80;5.10;;;8.90;99.90;;;;;;5028824;28;20037;-68
2023/01/07 06:11:50;;;;;;;9.80;5.10;;;8.90;99.90;;;;;;5017706;28;20050;-67
2023/01/07 06:14:17;;;;;;;7.88;5.00;;;8.80;99.90;;;;;;5025904;28;20041;-68
2023/01/07 06:16:45;;;;;;;7.03;4.82;;;8.90;99.90;;;;;;5027529;28;20045;-68
2023/01/07 06:19:12;;;;;;;7.13;4.85;;;8.90;99.90;;;;;;5028624;28;20045;-68
2023/01/07 06:21:39;;;;;;;6.85;4.47;;;8.80;99.90;;;;;;5029650;28;20057;-68
2023/01/07 06:24:07;;;;;;;7.65;4.72;;;8.80;99.90;;;;;;5028023;28;20042;-69
2023/01/07 06:26:34;;;;;;;7.60;4.68;;;8.80;99.90;;;;;;5028352;28;20037;-68
2023/01/07 06:29:01;;;;;;;12.20;4.72;;;8.90;99.90;;;;;;5019780;28;20092;-68
2023/01/07 06:31:28;;;;;;;7.57;4.45;;;8.80;99.90;;;;;;5004735;28;20042;-68
2023/01/07 06:33:56;;;;;;;7.47;5.00;;;8.80;99.90;;;;;;5020126;28;20049;-68
2023/01/07 06:36:23;;;;;;;7.32;4.95;;;8.80;99.90;;;;;;5014383;28;20050;-69
2023/01/07 06:38:50;;;;;;;9.85;5.20;;;8.80;99.90;;;;;;5019560;28;20492;-68
2023/01/07 06:41:17;;;;;;;7.65;5.13;;;8.80;99.90;;;;;;5025816;28;20041;-70
2023/01/07 06:43:45;;;;;;;7.40;4.97;;;8.80;99.90;;;;;;5027804;28;20392;-69
2023/01/07 06:46:12;;;;;;;6.70;4.55;;;8.80;99.90;;;;;;5029665;28;20050;-68
2023/01/07 06:48:39;;;;;;;7.72;4.38;;;8.80;99.90;;;;;;5027541;28;20538;-68
2023/01/07 06:51:07;;;;;;;7.43;4.43;;;8.80;99.90;;;;;;5028686;28;20046;-69
2023/01/07 06:53:34;;;;;;;7.95;5.07;;;8.80;99.90;;;;;;5024329;28;20049;-69
2023/01/07 06:56:01;;;;;;;7.30;4.55;;;8.80;99.90;;;;;;5025557;28;20493;-68
2023/01/07 06:58:29;;;;;;;6.82;4.50;;;8.80;99.90;;;;;;5012313;28;20535;-69
2023/01/07 07:00:56;;;;;;;6.93;4.10;;;8.80;99.90;;;;;;5024174;28;20581;-69
2023/01/07 07:03:23;;;;;;;7.07;4.45;;;8.80;99.90;;;;;;5023426;28;20096;-69
2023/01/07 07:05:51;;;;;;;7.78;4.50;;;8.80;99.90;;;;;;5032560;28;20562;-69
2023/01/07 07:08:18;;;;;;;7.10;4.78;;;8.80;99.90;;;;;;5022366;28;20074;-70
2023/01/07 07:10:45;;;;;;;8.68;4.70;;;8.80;99.90;;;;;;5012448;28;20508;-69
2023/01/07 07:13:12;;;;;;;8.18;4.97;;;8.80;99.90;;;;;;5016040;28;20042;-68
2023/01/07 07:15:40;;;;;;;7.07;4.50;;;8.80;99.90;;;;;;5021301;28;20038;-69
2023/01/07 07:18:07;;;;;;;9.90;5.55;;;8.80;99.90;;;;;;5027782;28;20897;-69
2023/01/07 07:20:34;;;;;;;9.05;5.10;;;8.80;99.90;;;;;;5031426;28;20037;-69
2023/01/07 07:23:02;;;;;;;6.97;5.15;;;8.80;99.90;;;;;;5027906;28;20037;-69
2023/01/07 07:25:29;;;;;;;7.78;5.10;;;8.80;99.90;;;;;;5021328;28;20128;-69
2023/01/07 07:27:57;;;;;;;10.70;6.07;;;8.80;99.90;;;;;;5031402;28;20045;-69
2023/01/07 07:30:24;;;;;;;8.40;5.50;;;8.80;99.90;;;;;;5029842;28;20075;-70
2023/01/07 07:33:13;;;;;;;8.38;5.75;;;8.80;99.90;;;;;;5012850;28;20054;-69
2023/01/07 07:35:41;;;;;;;7.40;4.93;;;8.80;99.90;;;;;;5021613;28;20539;-68
2023/01/07 07:38:08;;;;;;;9.55;5.25;;;8.80;99.90;;;;;;5014184;28;20056;-69
2023/01/07 07:40:36;;;;;;;9.07;5.85;;;8.80;99.90;;;;;;5017593;28;20066;-69
2023/01/07 07:43:03;;;;;;;7.82;5.53;;;8.80;99.90;;;;;;5011487;28;20552;-68
2023/01/07 07:45:42;;;;;;;9.93;5.30;;;8.80;99.90;;;;;;5025039;28;20171;-68
2023/01/07 07:48:12;;;;;;;8.77;6.03;;;8.80;99.90;;;;;;5019056;28;20046;-69
2023/01/07 07:50:40;;;;;;;9.38;5.90;;;8.90;99.90;;;;;;5020623;28;20041;-68
2023/01/07 07:53:09;;;;;;;10.00;5.70;;;8.90;99.90;;;;;;5015374;28;20053;-69
2023/01/07 07:55:37;;;;;;;11.20;6.25;;;8.90;99.90;;;;;;5018216;28;20065;-68
2023/01/07 07:58:05;;;;;;;8.55;6.10;;;8.90;99.90;;;;;;5015470;28;20208;-68
2023/01/07 08:00:32;;;;;;;9.68;6.47;;;8.90;99.90;;;;;;5021190;28;20068;-68
2023/01/07 08:03:00;;;;;;;8.98;5.90;;;9.00;99.90;;;;;;5029419;28;20510;-69
2023/01/07 08:05:28;;;;;;;9.93;6.30;;;8.90;99.90;;;;;;5028034;28;20057;-69
2023/01/07 08:07:57;;;;;;;9.23;6.20;;;9.00;99.90;;;;;;5026312;28;20049;-68
2023/01/07 08:10:26;;;;;;;10.00;6.28;;;9.00;99.90;;;;;;5024222;28;20053;-69
2023/01/07 08:12:53;;;;;;;10.07;6.30;;;9.00;99.90;;;;;;5028295;28;20046;-69
2023/01/07 08:15:21;;;;;;;14.48;6.70;;;9.00;99.90;;;;;;5012757;28;20049;-68
2023/01/07 08:17:58;;;;;;;10.88;6.43;;;9.10;99.90;;;;;;5020958;28;20043;-69
2023/01/07 08:20:25;;;;;;;12.57;6.72;;;9.10;99.90;;;;;;5015565;28;20092;-68
2023/01/07 08:22:53;;;;;;;12.55;6.55;;;9.10;99.90;;;;;;5025401;28;20389;-69
2023/01/07 08:25:20;;;;;;;10.13;6.72;;;9.10;99.90;;;;;;5024035;28;20054;-68
2023/01/07 08:27:47;;;;;;;10.48;6.97;;;9.20;99.90;;;;;;5017348;28;20080;-69
2023/01/07 08:30:15;;;;;;;11.65;7.05;;;9.20;99.90;;;;;;5016177;28;20034;-69
2023/01/07 08:32:43;;;;;;;11.35;7.38;;;9.20;99.90;;;;;;5021889;28;20515;-68
2023/01/07 08:35:10;;;;;;;12.82;6.80;;;9.20;99.90;;;;;;4993328;28;20428;-67
2023/01/07 08:37:37;;;;;;;11.02;6.72;;;9.20;99.90;;;;;;5022018;28;20058;-69
2023/01/07 08:40:05;;;;;;;9.88;6.43;;;9.30;99.90;;;;;;5026537;28;20478;-68
2023/01/07 08:42:33;;;;;;;9.93;6.55;;;9.30;99.90;;;;;;5021680;28;20495;-68
2023/01/07 08:45:00;;;;;;;8.05;6.18;;;9.30;99.90;;;;;;5025576;28;20048;-68
2023/01/07 08:47:27;;;;;;;12.23;6.45;;;9.30;99.90;;;;;;5014231;28;20622;-68
2023/01/07 08:49:55;;;;;;;10.57;6.95;;;9.30;99.90;;;;;;4994849;28;20076;-68
2023/01/07 08:52:23;;;;;;;9.30;5.93;;;9.40;99.90;;;;;;5026181;28;20528;-67
2023/01/07 08:54:50;;;;;;;10.23;6.60;;;9.40;99.90;;;;;;5018497;28;20042;-67
2023/01/07 08:57:18;;;;;;;10.23;6.25;;;9.40;99.90;;;;;;5015543;28;20452;-67
2023/01/07 08:59:45;;;;;;;10.60;6.68;;;9.40;99.90;;;;;;5024016;28;20045;-67
2023/01/07 09:02:15;;;;;;;9.88;6.38;;;9.40;99.90;;;;;;5017047;28;20468;-67
2023/01/07 09:04:43;;;;;;;9.77;6.03;;;9.40;99.90;;;;;;5025611;28;20045;-68
2023/01/07 09:07:11;;;;;;;8.95;6.05;;;9.50;99.90;;;;;;5011687;28;20045;-68
2023/01/07 09:09:38;;;;;;;8.20;5.60;;;9.50;99.90;;;;;;5014460;28;20041;-67
2023/01/07 09:12:05;;;;;;;9.27;4.90;;;9.50;99.90;;;;;;5012389;28;20104;-67
2023/01/07 09:14:36;;;;;;;8.43;5.10;;;9.50;99.90;;;;;;5022831;28;20038;-68
2023/01/07 09:17:04;;;;;;;9.85;5.80;;;9.60;99.90;;;;;;5013830;28;20084;-68
2023/01/07 09:19:31;;;;;;;7.10;4.80;;;9.60;99.90;;;;;;5016083;28;20068;-68
2023/01/07 09:21:58;;;;;;;7.03;5.05;;;9.70;99.90;;;;;;5017955;28;20554;-67
2023/01/07 09:24:25;;;;;;;8.95;5.20;;;9.70;99.90;;;;;;5024653;28;20144;-68
2023/01/07 09:26:53;;;;;;;8.52;5.07;;;9.80;99.90;;;;;;5015390;28;20075;-68
2023/01/07 09:29:20;;;;;;;7.60;4.90;;;9.80;99.90;;;;;;5014177;28;20493;-68
2023/01/07 09:31:47;;;;;;;9.05;5.57;;;9.80;99.90;;;;;;5008354;28;20124;-68
2023/01/07 09:34:15;;;;;;;6.38;4.78;;;9.80;99.90;;;;;;5014031;28;20054;-68
2023/01/07 09:36:42;;;;;;;8.25;5.60;;;9.90;99.90;;;;;;5024414;28;20048;-68
2023/01/07 09:39:10;;;;;;;7.20;4.38;;;9.90;99.90;;;;;;5009288;28;20083;-69
2023/01/07 09:42:02;;;;;;;8.88;5.43;;;9.90;99.90;;;;;;5023517;28;20045;-69
2023/01/07 09:44:57;;;;;;;7.13;5.03;;;9.90;99.90;;;;;;5021826;28;20034;-68
2023/01/07 09:47:28;;;;;;;7.28;5.00;;;9.90;99.90;;;;;;5015927;28;20045;-68
2023/01/07 09:50:22;;;;;;;8.77;5.00;;;10.00;99.90;;;;;;5015671;28;20045;-68
2023/01/07 09:52:54;;;;;;;5.95;4.20;;;10.00;99.90;;;;;;5026457;28;20440;-69
2023/01/07 09:55:38;;;;;;;7.65;4.75;;;10.00;99.90;;;;;;5021390;28;20046;-67
2023/01/07 09:58:26;;;;;;;7.15;4.30;;;10.00;99.90;;;;;;5025010;28;20061;-68
2023/01/07 10:01:05;;;;;;;11.93;4.88;;;10.00;99.90;;;;;;5021075;28;20038;-68
2023/01/07 10:04:03;;;;;;;6.93;4.18;;;10.00;99.90;;;;;;5010056;28;20053;-68
2023/01/07 10:06:44;;;;;;;5.32;3.67;;;10.00;99.90;;;;;;5016602;28;20737;-69
2023/01/07 10:09:37;;;;;;;6.45;3.72;;;10.00;99.90;;;;;;5017402;28;20419;-68
2023/01/07 10:12:11;;;;;;;4.97;3.28;;;10.00;99.90;;;;;;5027446;28;20104;-68
2023/01/07 10:14:46;;;;;;;6.65;3.65;;;10.10;99.90;;;;;;5014515;28;20516;-69
2023/01/07 10:17:43;;;;;;;5.40;3.47;;;10.00;99.90;;;;;;5017847;28;20128;-70
2023/01/07 10:20:28;;;;;;;5.32;3.50;;;10.00;99.90;;;;;;5022679;28;20037;-70
2023/01/07 10:23:03;;;;;;;6.47;3.90;;;10.00;99.90;;;;;;5013367;28;20464;-68
2023/01/07 10:25:37;;;;;;;6.40;3.58;;;10.10;99.90;;;;;;5019025;28;20388;-72
2023/01/07 10:28:12;;;;;;;5.65;3.53;;;10.10;99.90;;;;;;5023905;28;20045;-68
2023/01/07 10:30:43;;;;;;;5.90;3.35;;;10.20;99.90;;;;;;5030660;28;20060;-66
2023/01/07 10:33:25;;;;;;;11.27;5.95;;;10.30;99.90;;;;;;5027940;28;20504;-67
2023/01/07 10:36:12;;;;;;;;;;;10.30;99.90;;;;;;5003713;28;20061;-67
2023/01/07 10:38:44;;;;;;;6.38;3.88;;;10.40;99.90;;;;;;5022566;28;19925;-68
2023/01/07 10:41:24;;;;;;;6.45;3.30;;;10.50;99.90;;;;;;5020564;28;20042;-67
2023/01/07 10:44:38;;;;;;;6.75;3.30;;;10.60;99.90;;;;;;5026310;28;20045;-65
2023/01/07 10:47:10;;;;;;;6.03;3.38;;;10.80;99.90;;;;;;5020463;28;20053;-67
2023/01/07 10:50:30;;;;;;;5.35;3.45;;;10.80;99.90;;;;;;5029383;28;20052;-66
2023/01/07 10:53:23;;;;;;;6.13;3.20;;;11.00;99.90;;;;;;5018900;28;20061;-67
2023/01/07 10:56:12;;;;;;;5.15;3.63;;;11.00;99.90;;;;;;5022965;28;20567;-68
2023/01/07 10:58:41;;;;;;;6.90;3.70;;;11.20;99.90;;;;;;5024735;28;20046;-67
2023/01/07 11:01:19;;;;;;;8.77;3.85;;;11.20;99.90;;;;;;5031160;28;20049;-68
2023/01/07 11:03:52;;;;;;;8.02;4.57;;;11.20;99.90;;;;;;5024499;28;20088;-68
2023/01/07 11:06:47;;;;;;;6.47;4.65;;;11.30;99.90;;;;;;5031831;28;20057;-68
2023/01/07 11:09:32;;;;;;;5.90;4.18;;;11.30;99.90;;;;;;5025821;28;20445;-68
2023/01/07 11:12:40;;;;;;;5.47;4.00;;;11.40;99.90;;;;;;5022082;28;20052;-67
2023/01/07 11:15:34;;;;;;;11.10;6.97;;;11.40;99.90;;;;;;5011356;28;20512;-66
2023/01/07 11:18:28;;;;;;;6.63;4.43;;;11.40;99.90;;;;;;5013487;28;20046;-66
2023/01/07 11:20:58;;;;;;;6.53;3.80;;;11.50;99.90;;;;;;5020821;28;20394;-65
2023/01/07 11:23:42;;;;;;;4.43;3.00;;;11.60;99.90;;;;;;5030879;28;20127;-65
2023/01/07 11:26:13;;;;;;;5.70;3.63;;;11.70;99.90;;;;;;5025185;28;20405;-66
2023/01/07 11:28:53;;;;;;;5.70;3.63;;;11.70;99.90;;;;;;5029307;28;20092;-66
2023/01/07 11:31:41;;;;;;;5.57;3.42;;;11.50;99.90;;;;;;5017394;28;20049;-66
2023/01/07 11:34:29;;;;;;;4.57;3.35;;;11.50;99.90;;;;;;5016121;28;20496;-66
2023/01/07 11:36:56;;;;;;;5.60;3.90;;;11.50;99.90;;;;;;5002283;28;20567;-66
2023/01/07 11:39:30;;;;;;;5.50;3.78;;;11.40;99.90;;;;;;5026140;28;20072;-66
2023/01/07 11:45:26;;;;;;;4.70;3.60;;;11.40;99.90;;;;;;5025264;28;20038;-66
2023/01/07 11:48:29;;;;;;;6.20;4.38;;;11.40;99.90;;;;;;5017781;28;20104;-66
2023/01/07 11:50:59;;;;;;;5.88;4.07;;;11.40;99.90;;;;;;5023058;28;20497;-66
2023/01/07 11:53:30;;;;;;;4.70;3.55;;;11.40;99.90;;;;;;5023556;28;20042;-65
2023/01/07 11:56:03;;;;;;;8.52;4.78;;;11.40;99.90;;;;;;5012160;28;20056;-65
2023/01/07 11:58:37;;;;;;;7.65;4.97;;;11.30;99.90;;;;;;5019548;28;20034;-64
2023/01/07 12:01:08;;;;;;;15.98;8.93;;;11.40;99.90;;;;;;5028110;28;20423;-65
2023/01/07 12:03:42;;;;;;;8.00;5.43;;;11.40;99.90;;;;;;5025007;28;20103;-65
2023/01/07 12:06:17;;;;;;;5.18;3.50;;;11.50;99.90;;;;;;5023980;28;20136;-65
2023/01/07 12:09:03;;;;;;;6.70;4.25;;;11.60;99.90;;;;;;5013245;28;20046;-65
2023/01/07 12:11:33;;;;;;;5.63;3.30;;;11.60;99.90;;;;;;5027378;28;20558;-66
2023/01/07 12:14:28;;;;;;;5.57;3.47;;;11.60;99.90;;;;;;5013647;28;20042;-65
2023/01/07 12:17:08;;;;;;;6.28;3.40;;;12.00;99.90;;;;;;5026362;28;20149;-66
2023/01/07 12:19:47;;;;;;;5.43;3.83;;;12.40;99.90;;;;;;5021873;28;20036;-65
2023/01/07 12:22:23;;;;;;;6.45;4.43;;;12.40;99.90;;;;;;5030100;28;20171;-66
2023/01/07 12:25:21;;;;;;;4.95;3.28;;;12.50;99.90;;;;;;5030785;28;20450;-66
2023/01/07 12:27:59;;;;;;;8.05;3.78;;;12.70;99.90;;;;;;5025946;28;20116;-66
2023/01/07 12:30:53;;;;;;;4.97;3.10;;;12.70;99.90;;;;;;5022836;28;20038;-65
2023/01/07 12:33:50;;;;;;;4.38;3.17;;;12.40;99.90;;;;;;5010568;28;20037;-65
2023/01/07 12:36:51;;;;;;;4.63;3.20;;;12.20;99.90;;;;;;5027742;28;20109;-66
2023/01/07 12:39:29;;;;;;;4.75;3.45;;;12.00;99.90;;;;;;5017167;28;20052;-66
2023/01/07 12:42:12;;;;;;;4.80;3.58;;;11.90;99.90;;;;;;5018719;28;20634;-67
2023/01/07 12:44:47;;;;;;;4.47;3.67;;;11.80;99.90;;;;;;5019915;28;20548;-67
2023/01/07 12:47:24;;;;;;;6.60;3.80;;;11.60;99.90;;;;;;5023811;28;20076;-67
2023/01/07 12:50:22;;;;;;;6.53;4.10;;;11.50;99.90;;;;;;5023300;28;20044;-64
2023/01/07 12:52:56;;;;;;;4.47;3.40;;;11.50;99.90;;;;;;5022392;28;20059;-65
2023/01/07 12:55:30;;;;;;;5.00;3.20;;;11.30;99.90;;;;;;5019196;28;20033;-66
2023/01/07 12:58:16;;;;;;;5.22;3.70;;;11.20;99.90;;;;;;5029217;28;20132;-66
2023/01/07 13:01:06;;;;;;;5.93;4.32;;;11.20;99.90;;;;;;5015360;28;20155;-65
2023/01/07 13:03:54;;;;;;;4.95;3.70;;;11.30;99.90;;;;;;5010027;28;20049;-66
2023/01/07 13:06:27;;;;;;;6.70;3.70;;;11.40;99.90;;;;;;5026749;28;20041;-66
2023/01/07 13:09:02;;;;;;;5.88;4.10;;;11.40;99.90;;;;;;5017747;28;20504;-65
2023/01/07 13:14:46;;;;;;;5.78;3.95;;;11.70;99.90;;;;;;5025920;28;20088;-69
2023/01/07 13:17:20;;;;;;;6.55;3.83;;;11.80;99.90;;;;;;5016972;28;20505;-65
2023/01/07 13:19:47;;;;;;;5.65;3.80;;;12.00;99.90;;;;;;5017004;28;20055;-65
2023/01/07 13:22:41;;;;;;;5.05;4.03;;;12.50;99.90;;;;;;5023415;28;20431;-66
2023/01/07 13:25:24;;;;;;;7.20;4.00;;;13.20;99.90;;;;;;5022048;28;20041;-66
2023/01/07 13:28:31;;;;;;;5.32;3.83;;;14.30;99.90;;;;;;5014025;28;20085;-65
2023/01/07 13:31:17;;;;;;;5.82;3.92;;;14.90;99.90;;;;;;5016967;28;20049;-65
2023/01/07 13:33:51;;;;;;;7.20;3.80;;;16.20;99.90;;;;;;5026954;28;20092;-65
2023/01/07 13:36:21;;;;;;;4.47;3.22;;;17.20;99.90;;;;;;5023336;28;20411;-66
2023/01/07 13:39:28;;;;;;;5.13;3.88;;;18.60;99.90;;;;;;5015897;28;20076;-66